Time;durP1;ratioP1;P1;durP2;ratioP2;P2;SDS_P1;SDS_P2;PMS_P1;PMS_P2;Temp;Humidity;BMP_temperature;BMP_pressure;BME280_temperature;BME280_humidity;BME280_pressure;Samples;Min_cycle;Max_cycle;Signal;HPM_P1;HPM_P2
2021/06/28 00:02:10;;;;;;;4.93;4.57;;;18.40;99.90;;;;;;5032622;28;20734;-63
2021/06/28 00:04:35;;;;;;;5.53;5.00;;;18.40;99.90;;;;;;5032530;28;20708;-62
2021/06/28 00:07:01;;;;;;;5.47;4.30;;;18.40;99.90;;;;;;5032482;28;20421;-62
2021/06/28 00:09:26;;;;;;;5.90;5.37;;;18.40;99.90;;;;;;5032104;28;20170;-62
2021/06/28 00:11:52;;;;;;;5.63;4.47;;;18.50;99.90;;;;;;5032375;28;20209;-62
2021/06/28 00:14:17;;;;;;;6.03;4.53;;;18.40;99.90;;;;;;5032381;28;20178;-62
2021/06/28 00:16:43;;;;;;;4.60;4.30;;;18.40;99.90;;;;;;5032418;28;20174;-62
2021/06/28 00:19:09;;;;;;;5.33;4.93;;;18.50;99.90;;;;;;5032045;28;20170;-62
2021/06/28 00:21:37;;;;;;;3.70;3.40;;;18.50;99.90;;;;;;5032219;28;20198;-62
2021/06/28 00:24:04;;;;;;;4.90;4.50;;;18.50;99.90;;;;;;5032733;28;20170;-62
2021/06/28 00:26:29;;;;;;;5.10;4.70;;;18.50;99.90;;;;;;5032058;28;20421;-62
2021/06/28 00:28:55;;;;;;;4.63;4.10;;;18.50;99.90;;;;;;5031610;28;20765;-62
2021/06/28 00:31:20;;;;;;;5.03;3.90;;;18.40;99.90;;;;;;5032055;28;20267;-62
2021/06/28 00:33:46;;;;;;;6.10;4.13;;;18.40;99.90;;;;;;5032152;28;20166;-62
2021/06/28 00:36:12;;;;;;;4.90;4.50;;;18.40;99.90;;;;;;5032004;28;20179;-62
2021/06/28 00:38:38;;;;;;;5.20;4.90;;;18.40;99.90;;;;;;5031739;28;20631;-63
2021/06/28 00:41:03;;;;;;;5.53;5.03;;;18.40;99.90;;;;;;5031908;28;20432;-62
2021/06/28 00:43:29;;;;;;;5.53;5.13;;;18.40;99.90;;;;;;5032033;28;20171;-62
2021/06/28 00:45:54;;;;;;;5.93;5.20;;;18.40;99.90;;;;;;5031995;28;20707;-62
2021/06/28 00:48:20;;;;;;;4.80;4.40;;;18.40;99.90;;;;;;5031724;28;20205;-62
2021/06/28 00:50:49;;;;;;;5.37;5.03;;;18.40;99.90;;;;;;5031511;28;20244;-62
2021/06/28 00:53:16;;;;;;;5.80;5.40;;;18.40;99.90;;;;;;5031719;28;20666;-62
2021/06/28 00:55:43;;;;;;;5.30;5.00;;;18.50;99.90;;;;;;5031859;28;20420;-62
2021/06/28 00:58:09;;;;;;;4.97;4.60;;;18.50;99.90;;;;;;5031844;28;20456;-61
2021/06/28 01:00:36;;;;;;;4.10;3.90;;;18.50;99.90;;;;;;5031465;28;20444;-61
2021/06/28 01:03:02;;;;;;;4.80;4.50;;;18.50;99.90;;;;;;5031751;28;20470;-62
2021/06/28 01:05:32;;;;;;;4.70;4.40;;;18.60;99.90;;;;;;5031769;28;20420;-62
2021/06/28 01:08:02;;;;;;;4.03;3.83;;;18.60;99.90;;;;;;5031592;28;20421;-62
2021/06/28 01:10:28;;;;;;;4.70;4.30;;;18.60;99.90;;;;;;5031355;28;20464;-63
2021/06/28 01:12:54;;;;;;;3.57;3.37;;;18.70;99.90;;;;;;5031706;28;20417;-63
2021/06/28 01:15:21;;;;;;;3.50;3.30;;;18.90;99.90;;;;;;5031701;28;20413;-63
2021/06/28 01:17:47;;;;;;;4.63;3.50;;;18.90;99.90;;;;;;5031717;28;20429;-62
2021/06/28 01:20:19;;;;;;;3.70;3.40;;;19.00;99.90;;;;;;5031205;28;20495;-62
2021/06/28 01:22:48;;;;;;;3.67;3.43;;;19.10;99.90;;;;;;5031865;28;20421;-61
2021/06/28 01:25:17;;;;;;;6.27;4.03;;;19.20;99.90;;;;;;5031552;28;20793;-63
2021/06/28 01:27:44;;;;;;;4.20;3.90;;;19.30;99.90;;;;;;5031585;28;20806;-63
2021/06/28 01:30:13;;;;;;;4.10;3.80;;;19.30;99.90;;;;;;5031544;28;20453;-65
2021/06/28 01:32:41;;;;;;;5.73;4.73;;;19.30;99.90;;;;;;5031643;28;20429;-65
2021/06/28 01:35:09;;;;;;;5.00;3.83;;;19.40;99.90;;;;;;5031480;28;20504;-65
2021/06/28 01:37:34;;;;;;;4.20;3.90;;;19.50;99.90;;;;;;5031553;28;20421;-64
2021/06/28 01:40:03;;;;;;;3.63;3.40;;;19.50;99.90;;;;;;5033138;28;20415;-65
2021/06/28 01:42:29;;;;;;;3.50;3.30;;;19.50;99.90;;;;;;5035079;28;20171;-63
2021/06/28 01:44:55;;;;;;;3.77;3.57;;;19.60;99.90;;;;;;5035335;28;20768;-65
2021/06/28 01:47:21;;;;;;;4.80;4.47;;;19.60;99.90;;;;;;5035130;28;20170;-64
2021/06/28 01:49:47;;;;;;;3.90;3.70;;;19.60;99.90;;;;;;5034863;28;20424;-63
2021/06/28 01:52:13;;;;;;;4.00;3.70;;;19.70;99.90;;;;;;5035061;28;20486;-65
2021/06/28 01:54:39;;;;;;;4.13;3.83;;;19.70;99.90;;;;;;5035366;28;20178;-64
2021/06/28 01:57:05;;;;;;;4.47;4.07;;;19.70;99.90;;;;;;5034897;28;20182;-65
2021/06/28 01:59:33;;;;;;;4.57;4.20;;;19.80;99.90;;;;;;5034600;28;20516;-64
2021/06/28 02:02:00;;;;;;;4.20;3.80;;;19.70;99.90;;;;;;5033325;28;20445;-64
2021/06/28 02:04:26;;;;;;;4.10;3.90;;;19.60;99.90;;;;;;5034893;28;20416;-64
2021/06/28 02:06:53;;;;;;;4.70;4.30;;;19.50;99.90;;;;;;5034866;28;20455;-65
2021/06/28 02:09:19;;;;;;;4.23;3.93;;;19.50;99.90;;;;;;5034571;28;20424;-64
2021/06/28 02:11:46;;;;;;;4.30;3.90;;;19.50;99.90;;;;;;5034670;28;20464;-65
2021/06/28 02:14:11;;;;;;;4.80;4.50;;;19.60;99.90;;;;;;5034892;28;20257;-64
2021/06/28 02:16:37;;;;;;;4.27;3.87;;;19.70;99.90;;;;;;5034513;28;20501;-65
2021/06/28 02:19:03;;;;;;;4.70;4.37;;;19.70;99.90;;;;;;5034563;28;20179;-65
2021/06/28 02:21:29;;;;;;;4.50;4.20;;;19.70;99.90;;;;;;5034565;28;20555;-65
2021/06/28 02:23:54;;;;;;;4.77;4.37;;;19.70;99.90;;;;;;5034688;28;20273;-64
2021/06/28 02:26:20;;;;;;;4.63;4.23;;;19.70;99.90;;;;;;5034482;28;20647;-65
2021/06/28 02:28:48;;;;;;;4.93;4.63;;;19.70;99.90;;;;;;5034252;28;20181;-65
2021/06/28 02:31:20;;;;;;;4.00;3.77;;;19.60;99.90;;;;;;5034279;28;20202;-64
2021/06/28 02:33:47;;;;;;;5.40;5.00;;;19.60;99.90;;;;;;5034696;28;20543;-64
2021/06/28 02:36:13;;;;;;;3.63;3.33;;;19.70;99.90;;;;;;5034261;28;20428;-64
2021/06/28 02:38:41;;;;;;;4.60;4.20;;;19.70;99.90;;;;;;5034201;28;20504;-65
2021/06/28 02:41:08;;;;;;;4.80;4.40;;;19.80;99.90;;;;;;5034652;28;20510;-64
2021/06/28 02:43:34;;;;;;;5.40;4.23;;;19.80;99.90;;;;;;5034215;28;20456;-65
2021/06/28 02:45:59;;;;;;;4.50;4.20;;;19.70;99.90;;;;;;5033936;28;20444;-65
2021/06/28 02:48:25;;;;;;;4.77;4.47;;;19.60;99.90;;;;;;5034241;28;20178;-64
2021/06/28 02:50:51;;;;;;;5.57;4.97;;;19.50;99.90;;;;;;5033543;28;20625;-63
2021/06/28 02:53:18;;;;;;;4.87;4.57;;;19.40;99.90;;;;;;5034015;28;20205;-65
2021/06/28 02:55:47;;;;;;;4.70;4.40;;;19.40;99.90;;;;;;5034076;28;20926;-65
2021/06/28 02:58:14;;;;;;;5.30;4.90;;;19.40;99.90;;;;;;5032343;28;20432;-64
2021/06/28 03:00:40;;;;;;;5.07;4.57;;;19.50;99.90;;;;;;5033835;28;20468;-64
2021/06/28 03:03:06;;;;;;;5.10;4.80;;;19.50;99.90;;;;;;5033797;28;20949;-63
2021/06/28 03:05:31;;;;;;;5.33;4.93;;;19.60;99.90;;;;;;5032576;28;20178;-65
2021/06/28 03:07:57;;;;;;;4.93;4.53;;;19.60;99.90;;;;;;5033866;28;20522;-64
2021/06/28 03:10:23;;;;;;;4.67;4.27;;;19.70;99.90;;;;;;5033461;28;20281;-64
2021/06/28 03:12:49;;;;;;;5.50;5.10;;;19.80;99.90;;;;;;5033476;28;20495;-63
2021/06/28 03:15:17;;;;;;;5.37;4.90;;;19.90;99.90;;;;;;5033763;28;20166;-64
2021/06/28 03:17:43;;;;;;;4.17;3.87;;;19.80;99.90;;;;;;5033674;28;20573;-65
2021/06/28 03:20:12;;;;;;;5.10;4.70;;;19.80;99.90;;;;;;5032006;28;20441;-64
2021/06/28 03:22:39;;;;;;;5.73;5.33;;;19.80;99.90;;;;;;5033444;28;20409;-64
2021/06/28 03:25:07;;;;;;;4.80;4.50;;;19.80;99.90;;;;;;5033625;28;20420;-65
2021/06/28 03:27:32;;;;;;;4.80;4.40;;;19.80;99.90;;;;;;5033328;28;20424;-64
2021/06/28 03:29:58;;;;;;;5.73;5.23;;;19.80;99.90;;;;;;5032810;28;20425;-64
2021/06/28 03:32:24;;;;;;;5.87;4.63;;;19.80;99.90;;;;;;5033476;28;20421;-65
2021/06/28 03:34:49;;;;;;;4.10;3.80;;;19.80;99.90;;;;;;5033723;28;20166;-64
2021/06/28 03:37:15;;;;;;;5.63;5.13;;;19.80;99.90;;;;;;5033331;28;20166;-64
2021/06/28 03:39:40;;;;;;;4.90;4.60;;;19.70;99.90;;;;;;5033238;28;20631;-64
2021/06/28 03:42:06;;;;;;;4.70;4.40;;;19.70;99.90;;;;;;5033025;28;20728;-65
2021/06/28 03:44:32;;;;;;;5.23;4.83;;;19.70;99.90;;;;;;5033372;28;20178;-64
2021/06/28 03:46:57;;;;;;;4.83;4.43;;;19.60;99.90;;;;;;5033314;28;20170;-64
2021/06/28 03:49:23;;;;;;;5.07;4.67;;;19.70;99.90;;;;;;5032787;28;20189;-64
2021/06/28 03:51:48;;;;;;;5.77;4.50;;;19.70;99.90;;;;;;5040934;22;20245;-62
2021/06/28 03:54:14;;;;;;;5.73;4.53;;;19.60;99.90;;;;;;5012828;28;20658;-62
2021/06/28 03:56:39;;;;;;;4.17;3.77;;;19.50;99.90;;;;;;5012846;28;20229;-62
2021/06/28 03:59:05;;;;;;;5.60;5.10;;;19.50;99.90;;;;;;5012675;28;20174;-63
2021/06/28 04:01:31;;;;;;;5.50;4.50;;;19.60;99.90;;;;;;5012577;28;20191;-61
2021/06/28 04:03:56;;;;;;;5.37;4.97;;;19.60;99.90;;;;;;5012752;28;20183;-62
2021/06/28 04:06:23;;;;;;;4.57;4.27;;;19.50;99.90;;;;;;5012894;28;20199;-62
2021/06/28 04:08:49;;;;;;;4.63;4.33;;;19.60;99.90;;;;;;5012924;28;20188;-62
2021/06/28 04:11:17;;;;;;;5.30;4.90;;;19.60;99.90;;;;;;5012473;28;20457;-62
2021/06/28 04:13:43;;;;;;;4.73;4.33;;;19.70;99.90;;;;;;5011412;28;20233;-63
2021/06/28 04:16:08;;;;;;;6.70;6.10;;;19.70;99.90;;;;;;5012788;28;20418;-62
2021/06/28 04:18:34;;;;;;;5.53;5.10;;;19.80;99.90;;;;;;5012396;28;20175;-62
2021/06/28 04:20:59;;;;;;;5.77;5.33;;;19.90;99.90;;;;;;5012555;28;20265;-62
2021/06/28 04:23:25;;;;;;;4.90;4.60;;;20.00;99.90;;;;;;5012457;28;20178;-63
2021/06/28 04:25:51;;;;;;;5.37;4.87;;;20.00;99.90;;;;;;5012573;28;20244;-62
2021/06/28 04:28:16;;;;;;;5.90;4.50;;;20.00;99.90;;;;;;5012411;28;20258;-62
2021/06/28 04:30:42;;;;;;;7.67;5.03;;;19.80;99.90;;;;;;5012212;28;20593;-62
2021/06/28 04:33:07;;;;;;;6.07;5.67;;;19.80;99.90;;;;;;5011170;28;20621;-62
2021/06/28 04:35:33;;;;;;;5.70;5.30;;;19.90;99.90;;;;;;4993836;28;20207;-62
2021/06/28 04:37:59;;;;;;;6.60;6.10;;;20.00;99.90;;;;;;4992711;28;20183;-62
2021/06/28 04:40:29;;;;;;;5.40;5.00;;;19.90;99.90;;;;;;5004259;28;20341;-63
2021/06/28 04:42:56;;;;;;;5.43;4.93;;;20.00;99.90;;;;;;4992647;28;20423;-62
2021/06/28 04:45:22;;;;;;;5.40;5.00;;;20.00;99.90;;;;;;4992669;28;20426;-62
2021/06/28 04:47:49;;;;;;;6.90;6.13;;;20.10;99.90;;;;;;4991480;28;20430;-62
2021/06/28 04:50:16;;;;;;;4.97;4.57;;;20.10;99.90;;;;;;4992080;28;20908;-62
2021/06/28 04:52:42;;;;;;;4.80;4.50;;;20.10;99.90;;;;;;4992435;28;20473;-63
2021/06/28 04:55:10;;;;;;;6.67;6.17;;;20.00;99.90;;;;;;4992585;28;20414;-63
2021/06/28 04:57:36;;;;;;;4.97;4.67;;;19.90;99.90;;;;;;4991131;28;20663;-62
2021/06/28 05:00:07;;;;;;;6.40;5.90;;;20.00;99.90;;;;;;4992115;28;20506;-62
2021/06/28 05:02:33;;;;;;;5.17;4.67;;;19.90;99.90;;;;;;4992642;28;20163;-62
2021/06/28 05:04:58;;;;;;;6.00;5.60;;;20.00;99.90;;;;;;4992557;28;20445;-61
2021/06/28 05:07:24;;;;;;;5.20;4.73;;;20.10;99.90;;;;;;4992607;28;20641;-61
2021/06/28 05:09:50;;;;;;;5.20;4.80;;;20.20;99.90;;;;;;4992310;28;20222;-61
2021/06/28 05:12:15;;;;;;;6.67;5.07;;;20.40;99.90;;;;;;4992388;28;20210;-61
2021/06/28 05:14:42;;;;;;;5.50;5.10;;;20.70;99.90;;;;;;5000785;28;20888;-61
2021/06/28 05:17:08;;;;;;;5.50;5.10;;;20.80;99.90;;;;;;5003423;28;20245;-61
2021/06/28 05:19:34;;;;;;;5.23;4.93;;;21.00;99.90;;;;;;5005116;28;20834;-63
2021/06/28 05:22:00;;;;;;;7.63;5.40;;;21.20;99.90;;;;;;4998612;28;20442;-62
2021/06/28 05:24:25;;;;;;;5.90;5.50;;;21.30;99.90;;;;;;4999728;28;20430;-63
2021/06/28 05:26:51;;;;;;;4.40;4.00;;;21.40;99.90;;;;;;5012682;28;20433;-62
2021/06/28 05:29:17;;;;;;;4.80;4.40;;;21.60;99.90;;;;;;5007729;28;20178;-62
2021/06/28 05:31:42;;;;;;;5.67;5.10;;;21.80;99.90;;;;;;5005811;28;20214;-62
2021/06/28 05:34:08;;;;;;;5.07;4.60;;;22.10;99.90;;;;;;5005156;28;20252;-62
2021/06/28 05:36:34;;;;;;;5.13;4.63;;;22.30;99.90;;;;;;5006645;28;20636;-62
2021/06/28 05:39:00;;;;;;;4.53;4.13;;;22.50;99.90;;;;;;4995624;28;20172;-62
2021/06/28 05:41:25;;;;;;;6.57;4.53;;;22.60;99.90;;;;;;4996891;28;20434;-64
2021/06/28 05:43:51;;;;;;;5.30;4.83;;;22.70;99.90;;;;;;5004894;28;20245;-62
2021/06/28 05:46:17;;;;;;;7.10;4.33;;;22.80;99.90;;;;;;5002886;28;20176;-63
2021/06/28 05:48:42;;;;;;;4.50;4.20;;;23.00;99.90;;;;;;5013600;28;20182;-63
2021/06/28 05:51:08;;;;;;;4.40;4.00;;;23.10;99.90;;;;;;5014080;28;20265;-64
2021/06/28 05:53:34;;;;;;;4.23;3.83;;;23.10;99.90;;;;;;5015307;28;20209;-63
2021/06/28 05:56:01;;;;;;;3.73;3.53;;;23.20;99.90;;;;;;5015349;28;20640;-63
2021/06/28 05:58:28;;;;;;;4.67;3.40;;;23.40;99.90;;;;;;5014483;28;20764;-64
2021/06/28 06:00:56;;;;;;;4.60;4.27;;;23.60;99.90;;;;;;5015053;28;20814;-63
2021/06/28 06:03:21;;;;;;;4.30;4.00;;;23.90;99.90;;;;;;5015105;28;20771;-63
2021/06/28 06:05:48;;;;;;;3.83;3.60;;;24.20;99.90;;;;;;5014949;28;20480;-64
2021/06/28 06:08:13;;;;;;;4.30;3.73;;;24.30;99.90;;;;;;5014958;28;20167;-64
2021/06/28 06:10:39;;;;;;;3.73;3.53;;;24.60;99.90;;;;;;5014642;28;20458;-63
2021/06/28 06:13:04;;;;;;;4.10;3.53;;;24.80;99.90;;;;;;5014925;28;20159;-63
2021/06/28 06:15:30;;;;;;;4.30;3.57;;;24.90;99.90;;;;;;5014875;28;20175;-64
2021/06/28 06:17:56;;;;;;;3.63;3.37;;;25.00;99.90;;;;;;5014868;28;20182;-63
2021/06/28 06:20:22;;;;;;;4.23;3.03;;;24.90;99.90;;;;;;5014282;28;20195;-63
2021/06/28 06:22:48;;;;;;;3.80;3.00;;;25.00;99.90;;;;;;5012430;28;20756;-63
2021/06/28 06:25:13;;;;;;;3.20;2.90;;;25.10;99.90;;;;;;4994438;28;20175;-63
2021/06/28 06:27:39;;;;;;;7.40;6.73;;;25.00;99.90;;;;;;4994978;28;20790;-64
2021/06/28 06:30:07;;;;;;;3.67;3.47;;;25.00;99.90;;;;;;5006295;28;20203;-62
2021/06/28 06:32:33;;;;;;;3.77;3.57;;;25.00;99.90;;;;;;5002765;28;20182;-63
2021/06/28 06:34:58;;;;;;;3.17;2.97;;;25.00;99.90;;;;;;4996526;28;20436;-63
2021/06/28 06:37:24;;;;;;;3.60;3.30;;;25.10;99.90;;;;;;4996687;28;20187;-64
2021/06/28 06:39:50;;;;;;;5.00;3.03;;;25.20;99.90;;;;;;5005030;28;20189;-62
2021/06/28 06:42:16;;;;;;;3.30;3.10;;;25.30;99.90;;;;;;5000723;28;20199;-62
2021/06/28 06:44:42;;;;;;;3.50;3.20;;;25.10;99.90;;;;;;5014392;28;20429;-64
2021/06/28 06:47:07;;;;;;;4.23;2.73;;;25.30;99.90;;;;;;5013965;28;20551;-64
2021/06/28 06:49:33;;;;;;;3.83;3.47;;;25.40;99.90;;;;;;5013886;28;20175;-63
2021/06/28 06:51:58;;;;;;;4.17;3.33;;;25.50;99.90;;;;;;5015318;28;20244;-63
2021/06/28 06:54:24;;;;;;;3.60;3.20;;;25.70;99.90;;;;;;5034312;28;20173;-62
2021/06/28 06:56:49;;;;;;;3.00;2.80;;;25.80;99.90;;;;;;5034083;28;20223;-63
2021/06/28 06:59:15;;;;;;;3.37;3.17;;;26.00;99.90;;;;;;5033895;28;20163;-63
2021/06/28 07:01:42;;;;;;;4.80;3.53;;;26.30;99.90;;;;;;5031380;28;20306;-63
2021/06/28 07:04:07;;;;;;;4.10;2.63;;;26.50;99.90;;;;;;5013359;28;20678;-64
2021/06/28 07:06:33;;;;;;;3.47;3.27;;;26.30;99.90;;;;;;5003063;28;20445;-64
2021/06/28 07:08:59;;;;;;;3.57;3.27;;;26.40;99.90;;;;;;5009495;28;20269;-64
2021/06/28 07:11:25;;;;;;;4.17;3.97;;;26.60;99.90;;;;;;5010598;28;20213;-63
2021/06/28 07:13:51;;;;;;;3.97;3.67;;;26.80;99.90;;;;;;5003512;28;20686;-64
2021/06/28 07:16:30;;;;;;;6.67;2.73;;;27.00;99.90;;;;;;5024542;28;20922;-64
2021/06/28 07:18:55;;;;;;;3.30;3.00;;;27.00;99.90;;;;;;5030100;28;20792;-64
2021/06/28 07:21:21;;;;;;;4.60;3.10;;;27.00;99.90;;;;;;5017452;28;20453;-63
2021/06/28 07:23:48;;;;;;;3.50;3.30;;;26.80;99.90;;;;;;5010631;28;20240;-64
2021/06/28 07:26:14;;;;;;;7.87;7.23;;;27.00;99.90;;;;;;5029310;28;20198;-63
2021/06/28 07:28:39;;;;;;;4.17;3.97;;;27.10;99.90;;;;;;4990657;28;20451;-64
2021/06/28 07:31:05;;;;;;;3.47;3.00;;;27.10;99.90;;;;;;5009342;28;20317;-64
2021/06/28 07:33:33;;;;;;;3.23;3.03;;;27.10;99.90;;;;;;5008545;28;20187;-64
2021/06/28 07:35:59;;;;;;;3.30;3.10;;;27.20;99.90;;;;;;5010070;28;20178;-63
2021/06/28 07:38:26;;;;;;;3.40;3.20;;;27.30;99.90;;;;;;5008765;28;20469;-63
2021/06/28 07:40:52;;;;;;;3.17;2.97;;;27.50;99.90;;;;;;5010015;28;20210;-64
2021/06/28 07:43:18;;;;;;;3.10;2.90;;;27.80;99.90;;;;;;5009492;28;20430;-64
2021/06/28 07:45:44;;;;;;;4.03;3.73;;;28.10;99.90;;;;;;5009647;28;20440;-63
2021/06/28 07:48:09;;;;;;;4.20;3.90;;;28.30;99.90;;;;;;5010079;28;20183;-63
2021/06/28 07:50:35;;;;;;;3.70;3.20;;;28.40;99.90;;;;;;5009940;28;20579;-64
2021/06/28 07:53:00;;;;;;;3.93;3.63;;;28.10;99.90;;;;;;5008691;28;20187;-64
2021/06/28 07:55:26;;;;;;;3.70;3.43;;;28.40;99.90;;;;;;5009694;28;20237;-64
2021/06/28 07:57:52;;;;;;;3.40;3.10;;;28.50;99.90;;;;;;5010075;28;20258;-65
2021/06/28 08:00:18;;;;;;;3.30;3.10;;;28.60;99.90;;;;;;5011694;28;20178;-65
2021/06/28 08:02:45;;;;;;;6.27;3.60;;;28.80;99.90;;;;;;5026749;28;20425;-64
2021/06/28 08:05:11;;;;;;;3.63;3.17;;;28.80;99.90;;;;;;5024712;28;20516;-64
2021/06/28 08:07:37;;;;;;;3.27;3.07;;;29.00;99.90;;;;;;5000070;28;20430;-64
2021/06/28 08:10:07;;;;;;;3.10;2.90;;;28.90;99.90;;;;;;4989467;28;20876;-64
2021/06/28 08:12:33;;;;;;;2.73;2.63;;;29.30;99.90;;;;;;4995762;28;20186;-64
2021/06/28 08:14:58;;;;;;;4.37;3.97;;;29.50;99.90;;;;;;5001220;28;20581;-63
2021/06/28 08:17:24;;;;;;;4.47;4.07;;;30.00;99.90;;;;;;4991918;28;20498;-63
2021/06/28 08:19:50;;;;;;;3.50;3.30;;;29.90;99.90;;;;;;5008962;28;20241;-64
2021/06/28 08:22:16;;;;;;;3.43;3.13;;;29.70;99.90;;;;;;5005425;28;20471;-63
2021/06/28 08:24:42;;;;;;;5.73;4.40;;;29.50;99.90;;;;;;5008629;28;20276;-65
2021/06/28 08:27:08;;;;;;;5.07;3.67;;;29.40;99.90;;;;;;5008704;28;20466;-63
2021/06/28 08:29:34;;;;;;;4.13;3.73;;;29.40;99.90;;;;;;5007850;28;20442;-64
2021/06/28 08:31:59;;;;;;;3.50;3.20;;;29.60;99.90;;;;;;5006375;28;20791;-63
2021/06/28 08:34:25;;;;;;;2.97;2.77;;;29.80;99.60;;;;;;5009502;28;20179;-63
2021/06/28 08:36:51;;;;;;;3.87;3.57;;;30.00;98.10;;;;;;4995392;28;20270;-63
2021/06/28 08:39:17;;;;;;;4.00;3.63;;;30.10;98.20;;;;;;4989485;28;20664;-63
2021/06/28 08:41:46;;;;;;;3.80;3.50;;;30.40;97.40;;;;;;5005193;28;20844;-63
2021/06/28 08:44:14;;;;;;;3.97;3.67;;;30.80;96.50;;;;;;5009710;28;20444;-63
2021/06/28 08:46:40;;;;;;;3.47;3.27;;;31.00;95.50;;;;;;5008830;28;20890;-63
2021/06/28 08:49:06;;;;;;;4.40;4.00;;;31.20;94.50;;;;;;5008379;28;20916;-63
2021/06/28 08:51:32;;;;;;;3.30;3.10;;;31.20;94.60;;;;;;5006384;28;20607;-63
2021/06/28 08:53:58;;;;;;;4.67;3.13;;;31.40;93.20;;;;;;5006668;28;20543;-63
2021/06/28 08:56:24;;;;;;;4.57;3.57;;;31.40;92.60;;;;;;5008638;28;20181;-63
2021/06/28 08:58:49;;;;;;;4.50;3.90;;;31.50;92.30;;;;;;4998053;28;20179;-63
2021/06/28 09:01:15;;;;;;;4.40;4.13;;;31.40;92.10;;;;;;5009911;28;20228;-63
2021/06/28 09:03:41;;;;;;;3.77;3.47;;;31.40;92.60;;;;;;5026046;28;20659;-62
2021/06/28 09:06:07;;;;;;;4.40;4.00;;;31.50;91.30;;;;;;5028749;28;20186;-63
2021/06/28 09:08:34;;;;;;;3.50;3.20;;;31.40;90.60;;;;;;5028077;28;20174;-63
2021/06/28 09:11:01;;;;;;;3.17;2.97;;;31.50;90.10;;;;;;5027964;28;20833;-63
2021/06/28 09:13:37;;;;;;;4.23;3.93;;;31.80;89.20;;;;;;5016383;28;20433;-63
2021/06/28 09:16:20;;;;;;;4.57;3.47;;;31.70;89.50;;;;;;5028755;28;20416;-63
2021/06/28 09:19:02;;;;;;;3.40;3.20;;;31.80;89.40;;;;;;5028317;28;20417;-63
2021/06/28 09:21:49;;;;;;;3.03;2.80;;;32.10;86.00;;;;;;4989542;28;20465;-63
2021/06/28 09:24:26;;;;;;;3.73;3.40;;;32.40;84.80;;;;;;5005879;28;20433;-63
2021/06/28 09:26:58;;;;;;;4.70;4.17;;;32.50;82.50;;;;;;5008635;28;20428;-63
2021/06/28 09:29:38;;;;;;;3.67;3.47;;;32.30;82.80;;;;;;5001794;28;20746;-63
2021/06/28 09:32:08;;;;;;;3.83;3.53;;;32.30;82.70;;;;;;4992316;28;20477;-63
2021/06/28 09:34:34;;;;;;;3.77;3.57;;;32.30;83.20;;;;;;5008334;28;20852;-63
2021/06/28 09:36:59;;;;;;;3.33;3.13;;;32.50;82.00;;;;;;5007945;28;20504;-63
2021/06/28 09:39:28;;;;;;;2.83;2.63;;;32.50;82.80;;;;;;5008386;28;20171;-63
2021/06/28 09:42:07;;;;;;;5.07;4.00;;;32.50;85.10;;;;;;5006802;28;20742;-63
2021/06/28 09:44:34;;;;;;;3.50;3.30;;;32.80;81.30;;;;;;5027456;28;20432;-63
2021/06/28 09:47:14;;;;;;;3.70;3.40;;;32.80;80.40;;;;;;5027869;28;20516;-63
2021/06/28 09:49:57;;;;;;;3.90;3.60;;;33.10;78.10;;;;;;4988618;28;20438;-63
2021/06/28 09:52:31;;;;;;;3.90;3.60;;;33.20;77.90;;;;;;4993726;28;20476;-63
2021/06/28 09:55:14;;;;;;;4.80;4.40;;;33.40;74.70;;;;;;5008065;28;20444;-63
2021/06/28 09:58:03;;;;;;;3.17;2.87;;;34.00;74.50;;;;;;5008385;28;20461;-63
2021/06/28 10:00:29;;;;;;;4.20;3.90;;;34.60;71.90;;;;;;5012881;28;20455;-63
2021/06/28 10:02:54;;;;;;;3.87;3.67;;;34.90;69.20;;;;;;5017933;28;20424;-63
2021/06/28 10:05:23;;;;;;;4.03;3.83;;;35.20;69.10;;;;;;5031290;28;20182;-64
2021/06/28 10:07:49;;;;;;;3.60;3.40;;;35.70;68.60;;;;;;5031031;28;20236;-63
2021/06/28 10:10:17;;;;;;;3.43;3.23;;;36.20;66.80;;;;;;5031049;28;21001;-64
2021/06/28 10:12:58;;;;;;;3.87;3.50;;;36.90;65.30;;;;;;5027177;28;20204;-64
2021/06/28 10:15:26;;;;;;;3.40;3.00;;;37.40;61.20;;;;;;5031676;28;20452;-63
2021/06/28 10:17:52;;;;;;;3.83;3.53;;;37.30;59.90;;;;;;5030921;28;20425;-63
2021/06/28 10:20:21;;;;;;;3.43;3.00;;;36.80;59.60;;;;;;5022416;28;20572;-64
2021/06/28 10:22:49;;;;;;;3.23;2.93;;;37.20;59.40;;;;;;5010580;28;20556;-64
2021/06/28 10:25:17;;;;;;;4.00;3.70;;;37.50;57.80;;;;;;5014174;28;20414;-65
2021/06/28 10:27:44;;;;;;;2.87;2.67;;;37.50;58.30;;;;;;5013164;28;20895;-64
2021/06/28 10:30:13;;;;;;;3.40;3.20;;;37.70;56.90;;;;;;5001419;28;20921;-66
2021/06/28 10:32:40;;;;;;;4.10;3.90;;;38.50;55.40;;;;;;5001756;28;20436;-65
2021/06/28 10:35:09;;;;;;;3.40;3.20;;;39.60;54.00;;;;;;5014762;28;20433;-64
2021/06/28 10:37:43;;;;;;;3.90;3.30;;;40.10;52.40;;;;;;5014435;28;20421;-65
2021/06/28 10:40:11;;;;;;;3.50;3.30;;;41.00;51.90;;;;;;5014186;28;20426;-65
2021/06/28 10:42:42;;;;;;;3.47;3.17;;;41.90;49.70;;;;;;5018939;28;20843;-63
2021/06/28 10:45:10;;;;;;;2.90;2.70;;;42.20;47.60;;;;;;5034176;28;20981;-65
2021/06/28 10:47:38;;;;;;;3.50;3.20;;;41.80;49.10;;;;;;5034182;28;20833;-64
2021/06/28 10:50:06;;;;;;;7.43;5.83;;;43.20;46.70;;;;;;5015109;28;20434;-63
2021/06/28 10:52:38;;;;;;;3.97;3.33;;;43.90;46.50;;;;;;5019627;28;20457;-63
2021/06/28 10:55:19;;;;;;;3.07;2.97;;;43.80;44.70;;;;;;5033814;28;20420;-62
2021/06/28 10:57:48;;;;;;;3.40;3.20;;;43.30;44.20;;;;;;5033865;28;20500;-63
2021/06/28 11:00:14;;;;;;;3.13;2.93;;;43.30;43.60;;;;;;5022274;28;20872;-63
2021/06/28 11:02:42;;;;;;;3.87;3.40;;;42.80;43.60;;;;;;5012450;28;20422;-62
2021/06/28 11:05:10;;;;;;;4.70;4.30;;;42.70;44.10;;;;;;5013465;28;20501;-62
2021/06/28 11:07:48;;;;;;;3.53;3.33;;;43.80;42.70;;;;;;5013895;28;20500;-62
2021/06/28 11:10:15;;;;;;;3.10;2.90;;;44.70;42.60;;;;;;5013564;28;20422;-62
2021/06/28 11:12:41;;;;;;;5.67;3.20;;;44.50;41.80;;;;;;5003332;28;20449;-62
2021/06/28 11:15:23;;;;;;;4.50;3.57;;;44.00;41.50;;;;;;5013776;28;20429;-62
2021/06/28 11:17:58;;;;;;;4.60;4.30;;;43.60;42.20;;;;;;5000127;28;21190;-62
2021/06/28 11:20:39;;;;;;;3.40;3.20;;;43.20;42.00;;;;;;5008091;28;20528;-62
2021/06/28 11:23:12;;;;;;;3.30;3.10;;;43.10;42.20;;;;;;5017390;28;20439;-62
2021/06/28 11:25:49;;;;;;;5.23;3.40;;;42.50;42.30;;;;;;5013020;28;20429;-62
2021/06/28 11:28:18;;;;;;;3.37;3.17;;;42.20;42.70;;;;;;5009965;28;20424;-62
2021/06/28 11:30:47;;;;;;;3.40;3.20;;;42.80;42.60;;;;;;4992528;28;20468;-62
2021/06/28 11:33:14;;;;;;;3.47;3.00;;;41.90;42.70;;;;;;5015651;28;20456;-62
2021/06/28 11:35:51;;;;;;;5.90;5.50;;;41.70;42.40;;;;;;5029744;28;20425;-62
2021/06/28 11:38:37;;;;;;;3.73;3.53;;;42.90;42.10;;;;;;5030007;28;20424;-65
2021/06/28 11:41:13;;;;;;;3.80;3.60;;;44.70;40.90;;;;;;5029531;28;20445;-64
2021/06/28 11:43:46;;;;;;;3.80;3.60;;;45.90;39.70;;;;;;5025564;28;20806;-65
2021/06/28 11:46:33;;;;;;;3.90;3.63;;;47.10;38.90;;;;;;5029694;28;20429;-64
2021/06/28 11:49:05;;;;;;;4.47;4.20;;;47.20;38.50;;;;;;5029243;28;20458;-64
2021/06/28 11:51:38;;;;;;;3.90;3.50;;;46.10;38.60;;;;;;5028358;28;20512;-63
2021/06/28 11:54:17;;;;;;;3.70;3.50;;;44.40;39.80;;;;;;5019421;28;20881;-63
2021/06/28 11:56:54;;;;;;;3.67;3.47;;;43.80;40.00;;;;;;5029334;28;20420;-64
2021/06/28 11:59:22;;;;;;;3.60;3.40;;;43.70;40.00;;;;;;5029172;28;20926;-64
2021/06/28 12:01:51;;;;;;;4.60;3.97;;;43.00;40.10;;;;;;5026359;28;20479;-64
2021/06/28 12:04:18;;;;;;;3.63;3.33;;;43.00;40.30;;;;;;5015714;28;20438;-63
2021/06/28 12:06:44;;;;;;;3.47;3.27;;;43.70;40.70;;;;;;5009542;28;20488;-64
2021/06/28 12:09:10;;;;;;;3.40;3.20;;;44.30;40.10;;;;;;5009295;28;20864;-63
2021/06/28 12:11:47;;;;;;;4.00;3.43;;;44.60;39.30;;;;;;4996783;28;20506;-63
2021/06/28 12:14:25;;;;;;;4.20;3.80;;;45.00;39.20;;;;;;5016467;28;20531;-64
2021/06/28 12:16:51;;;;;;;3.37;3.17;;;45.30;38.90;;;;;;5009622;28;20794;-64
2021/06/28 12:19:16;;;;;;;3.70;3.50;;;45.80;37.70;;;;;;5009084;28;20426;-62
2021/06/28 12:21:42;;;;;;;3.50;3.30;;;46.30;37.80;;;;;;5009116;28;20302;-62
2021/06/28 12:24:17;;;;;;;4.93;4.23;;;46.50;38.00;;;;;;5027273;28;20265;-61
2021/06/28 12:27:01;;;;;;;4.10;3.80;;;46.80;38.50;;;;;;5029037;28;20189;-62
2021/06/28 12:29:38;;;;;;;3.50;3.20;;;46.50;38.40;;;;;;5021797;28;20782;-62
2021/06/28 12:32:13;;;;;;;2.97;2.87;;;46.30;38.60;;;;;;5006645;28;20968;-62
2021/06/28 12:34:43;;;;;;;3.70;3.50;;;45.70;39.00;;;;;;5008687;28;20429;-62
2021/06/28 12:37:09;;;;;;;4.53;3.43;;;45.90;38.40;;;;;;5008994;28;20441;-62
2021/06/28 12:39:35;;;;;;;3.63;3.43;;;46.50;38.30;;;;;;5008647;28;20430;-62
2021/06/28 12:42:15;;;;;;;4.63;4.27;;;46.30;37.80;;;;;;5006522;28;20214;-62
2021/06/28 12:44:42;;;;;;;3.80;3.50;;;46.60;38.40;;;;;;5008536;28;20564;-68
2021/06/28 12:47:10;;;;;;;4.17;3.80;;;45.70;38.30;;;;;;5008954;28;20520;-63
2021/06/28 12:49:36;;;;;;;3.77;3.53;;;45.00;39.00;;;;;;5008330;28;20951;-63
2021/06/28 12:52:28;;;;;;;4.00;3.23;;;43.80;39.50;;;;;;5009234;28;20553;-63